N504NT KSYR-KBDL
Flight info
| Callsign | N504NT |
|---|---|
| Flight time | 0h 38m |
| Altitude | 2000 |
| Route | ALB STELA1 |
| Aircraft | P180/L-VGD/C |
Departure
| Time | 2026-04-29 00:30 |
|---|---|
| Airport | Syracuse Hancock International Airport (KSYR) |
Arrival
| Time | 2026-04-29 01:09 |
|---|---|
| Airport | Bradley International Airport (KBDL) |
| Time | Latitude | Longitude | Altitude | Speed | Heading |
|---|---|---|---|---|---|
| 2026-04-29 00:11 | 43.10567 | -76.11353 | 409 ft | 0 kts | 118° |
| 2026-04-29 00:16 | 43.10546 | -76.11345 | 412 ft | 5 kts | 197° |
| 2026-04-29 00:16 | 43.10534 | -76.11381 | 416 ft | 5 kts | 284° |
| 2026-04-29 00:16 | 43.10581 | -76.11385 | 412 ft | 11 kts | 54° |
| 2026-04-29 00:17 | 43.10584 | -76.11379 | 414 ft | 0 kts | 56° |
| 2026-04-29 00:26 | 43.10622 | -76.11316 | 412 ft | 14 kts | 35° |
| 2026-04-29 00:27 | 43.10719 | -76.11308 | 412 ft | 15 kts | 332° |
| 2026-04-29 00:27 | 43.10738 | -76.11449 | 415 ft | 17 kts | 269° |
| 2026-04-29 00:27 | 43.10728 | -76.11627 | 414 ft | 20 kts | 266° |
| 2026-04-29 00:27 | 43.10721 | -76.11820 | 416 ft | 21 kts | 267° |
| 2026-04-29 00:28 | 43.10709 | -76.12024 | 415 ft | 22 kts | 246° |
| 2026-04-29 00:28 | 43.10675 | -76.12215 | 420 ft | 22 kts | 268° |
| 2026-04-29 00:28 | 43.10668 | -76.12430 | 421 ft | 21 kts | 268° |
| 2026-04-29 00:28 | 43.10720 | -76.12546 | 420 ft | 11 kts | 352° |
| 2026-04-29 00:29 | 43.10724 | -76.12546 | 422 ft | 0 kts | 356° |
| 2026-04-29 00:29 | 43.10734 | -76.12547 | 420 ft | 7 kts | 356° |
| 2026-04-29 00:29 | 43.10807 | -76.12547 | 421 ft | 11 kts | 20° |
| 2026-04-29 00:30 | 43.10826 | -76.12446 | 423 ft | 32 kts | 88° |
| 2026-04-29 00:30 | 43.10848 | -76.11724 | 413 ft | 111 kts | 87° |
| 2026-04-29 00:30 | 43.10901 | -76.10506 | 697 ft | 146 kts | 92° |
| 2026-04-29 00:30 | 43.10923 | -76.09018 | 1331 ft | 164 kts | 93° |
| 2026-04-29 00:31 | 43.10994 | -76.07406 | 2002 ft | 170 kts | 92° |
| 2026-04-29 00:31 | 43.11124 | -76.05825 | 2559 ft | 170 kts | 91° |
| 2026-04-29 00:31 | 43.11271 | -76.04213 | 2939 ft | 170 kts | 90° |
| 2026-04-29 00:31 | 43.11396 | -76.02577 | 2994 ft | 174 kts | 90° |
| 2026-04-29 00:32 | 43.11514 | -76.00932 | 2993 ft | 174 kts | 91° |
| 2026-04-29 00:32 | 43.11639 | -75.99286 | 2989 ft | 173 kts | 91° |
| 2026-04-29 00:32 | 43.11476 | -75.97707 | 3125 ft | 165 kts | 113° |
| 2026-04-29 00:32 | 43.11134 | -75.96167 | 3377 ft | 173 kts | 113° |
| 2026-04-29 00:33 | 43.10821 | -75.94589 | 4172 ft | 174 kts | 108° |
| 2026-04-29 00:33 | 43.10550 | -75.92932 | 4800 ft | 182 kts | 104° |
| 2026-04-29 00:33 | 43.10281 | -75.91210 | 5439 ft | 187 kts | 104° |
| 2026-04-29 00:33 | 43.10006 | -75.89480 | 6147 ft | 190 kts | 103° |
| 2026-04-29 00:34 | 43.09723 | -75.87704 | 6822 ft | 193 kts | 103° |
| 2026-04-29 00:34 | 43.09438 | -75.85905 | 7474 ft | 195 kts | 104° |
| 2026-04-29 00:34 | 43.09149 | -75.84085 | 8135 ft | 196 kts | 104° |
| 2026-04-29 00:34 | 43.08856 | -75.82250 | 8773 ft | 198 kts | 104° |
| 2026-04-29 00:35 | 43.08560 | -75.80396 | 9403 ft | 200 kts | 104° |
| 2026-04-29 00:35 | 43.08261 | -75.78524 | 9998 ft | 202 kts | 104° |
| 2026-04-29 00:35 | 43.07959 | -75.76630 | 10538 ft | 205 kts | 103° |
| 2026-04-29 00:35 | 43.07651 | -75.74705 | 11056 ft | 208 kts | 102° |
| 2026-04-29 00:36 | 43.07339 | -75.72752 | 11576 ft | 212 kts | 102° |
| 2026-04-29 00:36 | 43.07021 | -75.70770 | 12068 ft | 215 kts | 101° |
| 2026-04-29 00:36 | 43.06698 | -75.68754 | 12664 ft | 218 kts | 101° |
| 2026-04-29 00:36 | 43.06372 | -75.66713 | 13241 ft | 222 kts | 101° |
| 2026-04-29 00:37 | 43.06037 | -75.64629 | 13794 ft | 226 kts | 100° |
| 2026-04-29 00:37 | 43.05695 | -75.62515 | 14294 ft | 229 kts | 100° |
| 2026-04-29 00:37 | 43.05352 | -75.60403 | 14786 ft | 232 kts | 100° |
| 2026-04-29 00:37 | 43.05003 | -75.58242 | 15280 ft | 234 kts | 100° |
| 2026-04-29 00:38 | 43.04650 | -75.56057 | 15762 ft | 237 kts | 101° |
| 2026-04-29 00:38 | 43.04293 | -75.53850 | 16237 ft | 239 kts | 101° |
| 2026-04-29 00:38 | 43.03932 | -75.51625 | 16703 ft | 241 kts | 101° |
| 2026-04-29 00:38 | 43.03567 | -75.49377 | 17149 ft | 244 kts | 101° |
| 2026-04-29 00:39 | 43.03197 | -75.47098 | 17601 ft | 246 kts | 101° |
| 2026-04-29 00:39 | 43.02823 | -75.44802 | 18027 ft | 249 kts | 101° |
| 2026-04-29 00:39 | 43.02445 | -75.42484 | 18439 ft | 250 kts | 101° |
| 2026-04-29 00:39 | 43.02065 | -75.40155 | 18804 ft | 252 kts | 101° |
| 2026-04-29 00:40 | 43.01682 | -75.37815 | 19191 ft | 252 kts | 102° |
| 2026-04-29 00:40 | 43.01298 | -75.35466 | 19584 ft | 253 kts | 102° |
| 2026-04-29 00:40 | 43.00913 | -75.33117 | 19976 ft | 254 kts | 103° |
| 2026-04-29 00:40 | 43.00526 | -75.30764 | 20364 ft | 254 kts | 103° |
| 2026-04-29 00:41 | 43.00144 | -75.28437 | 20751 ft | 255 kts | 103° |
| 2026-04-29 00:41 | 42.99755 | -75.26074 | 21144 ft | 255 kts | 104° |
| 2026-04-29 00:41 | 42.99364 | -75.23700 | 21522 ft | 257 kts | 104° |
| 2026-04-29 00:41 | 42.98971 | -75.21318 | 21934 ft | 258 kts | 105° |
| 2026-04-29 00:42 | 42.98575 | -75.18926 | 22341 ft | 258 kts | 105° |
| 2026-04-29 00:42 | 42.98179 | -75.16529 | 22747 ft | 259 kts | 105° |
| 2026-04-29 00:42 | 42.97776 | -75.14103 | 23004 ft | 268 kts | 106° |
| 2026-04-29 00:42 | 42.97349 | -75.11553 | 23065 ft | 283 kts | 106° |
| 2026-04-29 00:43 | 42.96900 | -75.08857 | 23076 ft | 299 kts | 106° |
| 2026-04-29 00:43 | 42.96428 | -75.06016 | 23074 ft | 313 kts | 105° |
| 2026-04-29 00:43 | 42.95937 | -75.03062 | 23080 ft | 325 kts | 105° |
| 2026-04-29 00:43 | 42.95426 | -75.00001 | 23080 ft | 335 kts | 105° |
| 2026-04-29 00:44 | 42.94902 | -74.96870 | 23080 ft | 343 kts | 105° |
| 2026-04-29 00:44 | 42.94365 | -74.93665 | 23080 ft | 350 kts | 105° |
| 2026-04-29 00:44 | 42.93817 | -74.90401 | 23081 ft | 355 kts | 105° |
| 2026-04-29 00:44 | 42.93268 | -74.87132 | 23082 ft | 360 kts | 105° |
| 2026-04-29 00:45 | 42.92704 | -74.83788 | 23081 ft | 363 kts | 105° |
| 2026-04-29 00:45 | 42.92132 | -74.80410 | 23081 ft | 367 kts | 105° |
| 2026-04-29 00:45 | 42.91555 | -74.77003 | 23083 ft | 369 kts | 105° |
| 2026-04-29 00:45 | 42.90975 | -74.73580 | 23083 ft | 371 kts | 105° |
| 2026-04-29 00:46 | 42.90390 | -74.70134 | 23081 ft | 373 kts | 105° |
| 2026-04-29 00:46 | 42.89802 | -74.66679 | 23080 ft | 375 kts | 106° |
| 2026-04-29 00:46 | 42.89209 | -74.63209 | 23082 ft | 376 kts | 106° |
| 2026-04-29 00:46 | 42.88614 | -74.59722 | 23086 ft | 377 kts | 106° |
| 2026-04-29 00:47 | 42.88017 | -74.56234 | 23084 ft | 378 kts | 106° |
| 2026-04-29 00:47 | 42.87426 | -74.52787 | 23080 ft | 379 kts | 106° |
| 2026-04-29 00:47 | 42.86823 | -74.49281 | 23080 ft | 379 kts | 106° |
| 2026-04-29 00:47 | 42.86221 | -74.45788 | 23083 ft | 379 kts | 106° |
| 2026-04-29 00:48 | 42.85617 | -74.42287 | 23082 ft | 380 kts | 106° |
| 2026-04-29 00:48 | 42.85011 | -74.38783 | 23079 ft | 380 kts | 106° |
| 2026-04-29 00:48 | 42.84403 | -74.35274 | 23080 ft | 380 kts | 106° |
| 2026-04-29 00:48 | 42.83795 | -74.31774 | 23079 ft | 380 kts | 106° |
| 2026-04-29 00:49 | 42.83186 | -74.28271 | 23078 ft | 380 kts | 106° |
| 2026-04-29 00:49 | 42.82576 | -74.24771 | 23076 ft | 380 kts | 106° |
| 2026-04-29 00:49 | 42.81965 | -74.21268 | 23076 ft | 380 kts | 106° |
| 2026-04-29 00:49 | 42.81351 | -74.17764 | 23073 ft | 380 kts | 106° |
| 2026-04-29 00:50 | 42.80737 | -74.14255 | 23073 ft | 380 kts | 106° |
| 2026-04-29 00:50 | 42.80122 | -74.10757 | 23071 ft | 380 kts | 106° |
| 2026-04-29 00:50 | 42.79507 | -74.07260 | 23068 ft | 380 kts | 106° |
| 2026-04-29 00:50 | 42.78890 | -74.03764 | 23068 ft | 380 kts | 106° |
| 2026-04-29 00:51 | 42.78273 | -74.00269 | 23066 ft | 380 kts | 106° |
| 2026-04-29 00:51 | 42.77664 | -73.96827 | 23067 ft | 379 kts | 106° |
| 2026-04-29 00:51 | 42.77045 | -73.93334 | 23066 ft | 379 kts | 106° |
| 2026-04-29 00:51 | 42.76425 | -73.89847 | 23067 ft | 379 kts | 106° |
| 2026-04-29 00:52 | 42.75803 | -73.86353 | 23066 ft | 379 kts | 106° |
| 2026-04-29 00:52 | 42.75174 | -73.82871 | 23065 ft | 378 kts | 107° |
| 2026-04-29 00:52 | 42.74107 | -73.79645 | 23062 ft | 372 kts | 126° |
| 2026-04-29 00:52 | 42.72571 | -73.76833 | 23065 ft | 370 kts | 133° |
| 2026-04-29 00:53 | 42.70973 | -73.74094 | 23064 ft | 370 kts | 130° |
| 2026-04-29 00:53 | 42.69498 | -73.71204 | 23071 ft | 372 kts | 127° |
| 2026-04-29 00:53 | 42.68068 | -73.68279 | 23039 ft | 372 kts | 127° |
| 2026-04-29 00:53 | 42.66583 | -73.65421 | 22700 ft | 366 kts | 129° |
| 2026-04-29 00:54 | 42.65091 | -73.62663 | 22326 ft | 359 kts | 129° |
| 2026-04-29 00:54 | 42.63644 | -73.59935 | 21957 ft | 354 kts | 128° |
| 2026-04-29 00:54 | 42.62234 | -73.57217 | 21517 ft | 351 kts | 128° |
| 2026-04-29 00:54 | 42.60820 | -73.54513 | 20982 ft | 351 kts | 128° |
| 2026-04-29 00:55 | 42.59413 | -73.51856 | 20471 ft | 351 kts | 128° |
| 2026-04-29 00:55 | 42.57989 | -73.49164 | 19958 ft | 351 kts | 128° |
| 2026-04-29 00:55 | 42.56573 | -73.46473 | 19458 ft | 350 kts | 127° |
| 2026-04-29 00:55 | 42.55161 | -73.43793 | 18965 ft | 349 kts | 127° |
| 2026-04-29 00:56 | 42.53749 | -73.41122 | 18482 ft | 347 kts | 127° |
| 2026-04-29 00:56 | 42.52344 | -73.38469 | 17943 ft | 346 kts | 127° |
| 2026-04-29 00:56 | 42.50946 | -73.35830 | 17393 ft | 344 kts | 127° |
| 2026-04-29 00:56 | 42.49556 | -73.33204 | 16851 ft | 342 kts | 126° |
| 2026-04-29 00:57 | 42.48169 | -73.30589 | 16319 ft | 340 kts | 126° |
| 2026-04-29 00:57 | 42.46787 | -73.27985 | 15795 ft | 338 kts | 126° |
| 2026-04-29 00:57 | 42.45433 | -73.25435 | 15287 ft | 337 kts | 126° |
| 2026-04-29 00:57 | 42.44067 | -73.22868 | 14783 ft | 335 kts | 126° |
| 2026-04-29 00:58 | 42.42707 | -73.20313 | 14285 ft | 334 kts | 126° |
| 2026-04-29 00:58 | 42.41345 | -73.17755 | 13779 ft | 333 kts | 127° |
| 2026-04-29 00:58 | 42.39993 | -73.15219 | 13225 ft | 331 kts | 127° |
| 2026-04-29 00:58 | 42.38649 | -73.12699 | 12677 ft | 329 kts | 127° |
| 2026-04-29 00:59 | 42.37318 | -73.10207 | 12142 ft | 325 kts | 127° |
| 2026-04-29 00:59 | 42.35998 | -73.07737 | 11623 ft | 319 kts | 127° |
| 2026-04-29 00:59 | 42.34731 | -73.05384 | 11110 ft | 307 kts | 128° |
| 2026-04-29 00:59 | 42.33490 | -73.03076 | 10595 ft | 298 kts | 128° |
| 2026-04-29 01:00 | 42.32293 | -73.00837 | 10093 ft | 290 kts | 128° |
| 2026-04-29 01:00 | 42.31122 | -72.98654 | 9559 ft | 284 kts | 128° |
| 2026-04-29 01:00 | 42.29952 | -72.96528 | 9021 ft | 278 kts | 132° |
| 2026-04-29 01:00 | 42.28508 | -72.94859 | 8477 ft | 271 kts | 149° |
| 2026-04-29 01:01 | 42.26812 | -72.93833 | 7948 ft | 265 kts | 165° |
| 2026-04-29 01:01 | 42.25027 | -72.93274 | 7420 ft | 261 kts | 170° |
| 2026-04-29 01:01 | 42.23255 | -72.92801 | 6912 ft | 258 kts | 168° |
| 2026-04-29 01:01 | 42.21522 | -72.92205 | 6400 ft | 256 kts | 165° |
| 2026-04-29 01:02 | 42.19835 | -72.91538 | 5868 ft | 254 kts | 164° |
| 2026-04-29 01:02 | 42.18139 | -72.90891 | 5337 ft | 252 kts | 165° |
| 2026-04-29 01:02 | 42.16457 | -72.90286 | 4812 ft | 249 kts | 165° |
| 2026-04-29 01:02 | 42.14782 | -72.89682 | 4267 ft | 247 kts | 165° |
| 2026-04-29 01:03 | 42.13137 | -72.89079 | 3830 ft | 241 kts | 165° |
| 2026-04-29 01:03 | 42.11569 | -72.88503 | 3746 ft | 224 kts | 166° |
| 2026-04-29 01:03 | 42.10119 | -72.87971 | 3739 ft | 209 kts | 166° |
| 2026-04-29 01:03 | 42.08771 | -72.87460 | 3707 ft | 200 kts | 162° |
| 2026-04-29 01:04 | 42.07502 | -72.86684 | 3482 ft | 203 kts | 153° |
| 2026-04-29 01:04 | 42.06330 | -72.85622 | 3342 ft | 197 kts | 142° |
| 2026-04-29 01:04 | 42.05320 | -72.84475 | 3339 ft | 183 kts | 141° |
| 2026-04-29 01:04 | 42.04444 | -72.83315 | 3358 ft | 171 kts | 136° |
| 2026-04-29 01:05 | 42.03700 | -72.82234 | 3360 ft | 147 kts | 135° |
| 2026-04-29 01:05 | 42.02999 | -72.81212 | 3296 ft | 153 kts | 136° |
| 2026-04-29 01:05 | 42.02235 | -72.80165 | 3211 ft | 160 kts | 138° |
| 2026-04-29 01:05 | 42.01482 | -72.79152 | 3023 ft | 144 kts | 138° |
| 2026-04-29 01:06 | 42.00819 | -72.78235 | 2708 ft | 128 kts | 137° |
| 2026-04-29 01:06 | 42.00185 | -72.77349 | 2538 ft | 132 kts | 138° |
| 2026-04-29 01:06 | 41.99530 | -72.76474 | 2281 ft | 135 kts | 138° |
| 2026-04-29 01:06 | 41.98893 | -72.75605 | 1980 ft | 121 kts | 137° |
| 2026-04-29 01:07 | 41.98310 | -72.74810 | 1741 ft | 118 kts | 138° |
| 2026-04-29 01:07 | 41.97728 | -72.74039 | 1394 ft | 116 kts | 137° |
| 2026-04-29 01:07 | 41.97189 | -72.73324 | 1182 ft | 107 kts | 137° |
| 2026-04-29 01:07 | 41.96659 | -72.72604 | 1127 ft | 110 kts | 136° |
| 2026-04-29 01:08 | 41.96111 | -72.71886 | 934 ft | 113 kts | 136° |
| 2026-04-29 01:08 | 41.95555 | -72.71111 | 651 ft | 116 kts | 134° |
| 2026-04-29 01:08 | 41.94993 | -72.70352 | 396 ft | 113 kts | 136° |
| 2026-04-29 01:08 | 41.94467 | -72.69626 | 244 ft | 107 kts | 134° |
| 2026-04-29 01:09 | 41.93995 | -72.68984 | 171 ft | 64 kts | 134° |
| 2026-04-29 01:09 | 41.93857 | -72.68801 | 172 ft | 12 kts | 139° |
| 2026-04-29 01:09 | 41.93838 | -72.68783 | 173 ft | 5 kts | 169° |
| 2026-04-29 01:09 | 41.93810 | -72.68865 | 173 ft | 14 kts | 254° |
| 2026-04-29 01:10 | 41.93837 | -72.69010 | 175 ft | 18 kts | 307° |
| 2026-04-29 01:10 | 41.93824 | -72.69136 | 176 ft | 16 kts | 232° |
| 2026-04-29 01:10 | 41.93740 | -72.69247 | 176 ft | 18 kts | 230° |
| 2026-04-29 01:10 | 41.93775 | -72.69389 | 174 ft | 17 kts | 310° |
| 2026-04-29 01:11 | 41.93770 | -72.69434 | 174 ft | 5 kts | 153° |
| 2026-04-29 01:11 | 41.93765 | -72.69426 | 174 ft | 0 kts | 118° |